createdAt,value
2017-11-18T00:02:27.470Z,38.40
2017-11-18T00:04:54.926Z,38.23
2017-11-18T00:07:22.399Z,41.63
2017-11-18T00:09:49.882Z,39.70
2017-11-18T00:12:18.139Z,44.27
2017-11-18T00:14:45.625Z,42.60
2017-11-18T00:17:14.132Z,40.97
2017-11-18T00:19:41.606Z,40.57
2017-11-18T00:22:09.096Z,42.60
2017-11-18T00:24:36.563Z,38.13
2017-11-18T00:27:04.034Z,40.00
2017-11-18T00:29:32.271Z,40.90
2017-11-18T00:31:59.758Z,42.57
2017-11-18T00:34:27.234Z,40.27
2017-11-18T00:36:54.715Z,43.43
2017-11-18T00:39:22.191Z,41.97
2017-11-18T00:41:50.446Z,40.20
2017-11-18T00:44:18.706Z,42.17
2017-11-18T00:46:46.182Z,41.03
2017-11-18T00:49:13.660Z,41.87
2017-11-18T00:51:41.150Z,41.13
2017-11-18T00:54:08.639Z,39.40
2017-11-18T00:56:36.121Z,38.60
2017-11-18T00:59:03.607Z,38.23
2017-11-18T01:01:31.093Z,40.83
2017-11-18T01:03:59.349Z,38.33
2017-11-18T01:06:26.841Z,40.07
2017-11-18T01:08:54.346Z,42.77
2017-11-18T01:11:21.824Z,41.83
2017-11-18T01:13:49.307Z,43.80
2017-11-18T01:16:17.558Z,41.73
2017-11-18T01:18:45.042Z,42.30
2017-11-18T01:21:12.519Z,41.77
2017-11-18T01:23:40.760Z,42.07
2017-11-18T01:26:08.232Z,42.63
2017-11-18T01:28:35.711Z,43.10
2017-11-18T01:31:03.197Z,42.93
2017-11-18T01:33:31.461Z,44.13
2017-11-18T01:35:58.954Z,41.43
2017-11-18T01:38:26.421Z,41.47
2017-11-18T01:40:53.891Z,40.07
2017-11-18T01:43:21.375Z,40.43
2017-11-18T01:45:48.840Z,40.57
2017-11-18T01:48:16.341Z,39.97
2017-11-18T01:50:43.815Z,43.63
2017-11-18T01:53:12.058Z,41.10
2017-11-18T01:55:39.535Z,40.63
2017-11-18T01:58:06.992Z,35.93
2017-11-18T02:00:34.461Z,38.43
2017-11-18T02:03:01.919Z,38.07
2017-11-18T02:05:29.406Z,38.43
2017-11-18T02:07:57.626Z,35.77
2017-11-18T02:10:25.097Z,37.73
2017-11-18T02:12:52.559Z,34.30
2017-11-18T02:15:20.038Z,35.93
2017-11-18T02:17:47.508Z,36.70
2017-11-18T02:20:14.996Z,38.40
2017-11-18T02:22:43.230Z,35.37
2017-11-18T02:25:10.693Z,33.53
2017-11-18T02:27:38.157Z,38.27
2017-11-18T02:30:05.627Z,36.53
2017-11-18T02:32:33.108Z,37.93
2017-11-18T02:35:00.594Z,37.80
2017-11-18T02:37:28.049Z,37.67
2017-11-18T02:39:55.528Z,41.57
2017-11-18T02:42:23.756Z,40.73
2017-11-18T02:44:51.242Z,39.53
2017-11-18T02:47:19.480Z,39.60
2017-11-18T02:49:46.954Z,39.40
2017-11-18T02:52:14.429Z,36.97
2017-11-18T02:54:41.887Z,38.30
2017-11-18T02:57:09.383Z,36.27
2017-11-18T02:59:37.622Z,36.13
2017-11-18T03:02:05.119Z,35.33
2017-11-18T03:04:32.580Z,36.00
2017-11-18T03:07:00.065Z,37.30
2017-11-18T03:09:27.546Z,36.20
2017-11-18T03:11:55.038Z,35.80
2017-11-18T03:14:22.513Z,35.23
2017-11-18T03:16:50.762Z,36.67
2017-11-18T03:19:18.245Z,34.00
2017-11-18T03:21:45.731Z,34.50
2017-11-18T03:24:13.219Z,33.80
2017-11-18T03:26:40.702Z,35.40
2017-11-18T03:29:08.246Z,34.07
2017-11-18T03:31:35.733Z,33.13
2017-11-18T03:34:03.213Z,35.40
2017-11-18T03:36:30.721Z,36.90
2017-11-18T03:38:58.953Z,36.33
2017-11-18T03:41:26.461Z,36.77
2017-11-18T03:43:53.956Z,38.00
2017-11-18T03:46:21.418Z,37.77
2017-11-18T03:48:48.910Z,36.93
2017-11-18T03:51:16.387Z,38.67
2017-11-18T03:53:43.867Z,38.80
2017-11-18T03:56:12.125Z,34.10
2017-11-18T03:58:39.613Z,33.97
2017-11-18T04:01:07.100Z,34.53
2017-11-18T04:03:34.600Z,35.40
2017-11-18T04:06:02.083Z,33.60
2017-11-18T04:08:29.577Z,31.03
2017-11-18T04:10:57.059Z,34.80
2017-11-18T04:13:24.537Z,33.93
2017-11-18T04:15:52.017Z,37.23
2017-11-18T04:18:19.504Z,35.77
2017-11-18T04:20:46.965Z,35.33
2017-11-18T04:23:14.442Z,35.70
2017-11-18T04:25:42.677Z,37.93
2017-11-18T04:28:10.510Z,39.27
2017-11-18T04:30:37.989Z,36.67
2017-11-18T04:33:05.484Z,35.57
2017-11-18T04:35:32.960Z,35.43
2017-11-18T04:38:00.436Z,37.37
2017-11-18T04:40:28.690Z,32.53
2017-11-18T04:42:56.158Z,32.90
2017-11-18T04:45:23.623Z,35.53
2017-11-18T04:47:51.088Z,35.90
2017-11-18T04:50:18.554Z,33.63
2017-11-18T04:52:46.016Z,35.67
2017-11-18T04:55:14.273Z,35.57
2017-11-18T04:57:41.735Z,36.30
2017-11-18T05:00:09.219Z,42.00
2017-11-18T05:02:36.704Z,39.00
2017-11-18T05:05:04.953Z,35.13
2017-11-18T05:07:32.429Z,39.67
2017-11-18T05:09:59.920Z,38.70
2017-11-18T05:12:27.399Z,37.10
2017-11-18T05:14:54.891Z,37.13
2017-11-18T05:17:22.371Z,32.87
2017-11-18T05:19:49.871Z,38.23
2017-11-18T05:22:17.307Z,35.70
2017-11-18T05:24:45.566Z,35.63
2017-11-18T05:27:13.037Z,33.20
2017-11-18T05:29:40.543Z,39.37
2017-11-18T05:32:08.777Z,37.63
2017-11-18T05:34:36.252Z,36.93
2017-11-18T05:37:03.706Z,34.97
2017-11-18T05:39:31.177Z,34.30
2017-11-18T05:41:58.643Z,33.73
2017-11-18T05:44:26.896Z,33.90
2017-11-18T05:46:54.356Z,37.87
2017-11-18T05:49:21.840Z,37.53
2017-11-18T05:51:49.298Z,37.47
2017-11-18T05:54:16.791Z,40.90
2017-11-18T05:56:45.042Z,37.93
2017-11-18T05:59:12.532Z,41.40
2017-11-18T06:01:40.789Z,35.90
2017-11-18T06:04:08.283Z,39.70
2017-11-18T06:06:35.775Z,38.30
2017-11-18T06:09:03.261Z,37.47
2017-11-18T06:11:30.745Z,36.77
2017-11-18T06:13:59.010Z,37.53
2017-11-18T06:16:26.492Z,36.43
2017-11-18T06:18:53.973Z,37.40
2017-11-18T06:21:22.209Z,34.87
2017-11-18T06:23:49.675Z,38.80
2017-11-18T06:26:17.177Z,33.93
2017-11-18T06:28:45.408Z,36.93
2017-11-18T06:31:12.880Z,34.60
2017-11-18T06:33:40.355Z,36.87
2017-11-18T06:36:07.844Z,36.13
2017-11-18T06:38:36.129Z,35.43
2017-11-18T06:41:03.590Z,35.30
2017-11-18T06:43:31.826Z,38.07
2017-11-18T06:45:59.316Z,37.40
2017-11-18T06:48:27.577Z,36.67
2017-11-18T06:50:55.048Z,35.67
2017-11-18T06:53:22.525Z,38.37
2017-11-18T06:55:50.775Z,36.77
2017-11-18T06:58:18.241Z,36.73
2017-11-18T07:00:45.712Z,37.53
2017-11-18T07:03:13.177Z,36.57
2017-11-18T07:05:40.650Z,35.17
2017-11-18T07:08:08.133Z,35.97
2017-11-18T07:10:36.386Z,38.60
2017-11-18T07:13:03.875Z,37.57
2017-11-18T07:15:32.114Z,38.63
2017-11-18T07:17:59.607Z,37.03
2017-11-18T07:20:27.062Z,35.27
2017-11-18T07:22:54.545Z,34.13
2017-11-18T07:25:22.782Z,33.37
2017-11-18T07:27:50.274Z,34.40
2017-11-18T07:30:18.504Z,36.27
2017-11-18T07:32:46.004Z,34.83
2017-11-18T07:35:13.468Z,34.50
2017-11-18T07:37:40.947Z,33.77
2017-11-18T07:40:09.196Z,33.20
2017-11-18T07:42:36.661Z,30.07
2017-11-18T07:45:04.136Z,31.17
2017-11-18T07:47:31.619Z,30.47
2017-11-18T07:49:59.876Z,31.77
2017-11-18T07:52:27.343Z,32.00
2017-11-18T07:54:54.828Z,33.87
2017-11-18T07:57:23.088Z,30.67
2017-11-18T07:59:50.605Z,30.67
2017-11-18T08:02:18.090Z,31.03
2017-11-18T08:04:45.575Z,31.47
2017-11-18T08:07:13.061Z,31.43
2017-11-18T08:09:41.313Z,31.53
2017-11-18T08:12:08.777Z,30.93
2017-11-18T08:14:36.302Z,30.77
2017-11-18T08:17:03.774Z,30.03
2017-11-18T08:19:31.255Z,29.93
2017-11-18T08:21:58.726Z,28.63
2017-11-18T08:24:26.205Z,32.33
2017-11-18T08:26:54.454Z,30.87
2017-11-18T08:29:21.931Z,30.27
2017-11-18T08:31:49.425Z,32.40
2017-11-18T08:34:17.668Z,35.47
2017-11-18T08:36:45.194Z,35.43
2017-11-18T08:39:12.665Z,34.43
2017-11-18T08:41:40.261Z,58.53
2017-11-18T08:44:07.879Z,29.43
2017-11-18T08:46:35.358Z,28.40
2017-11-18T08:49:02.837Z,29.33
2017-11-18T08:51:30.316Z,28.83
2017-11-18T08:53:57.802Z,30.57
2017-11-18T08:56:25.268Z,28.40
2017-11-18T08:58:53.503Z,28.63
2017-11-18T09:01:20.997Z,28.47
2017-11-18T09:03:48.459Z,30.47
2017-11-18T09:06:15.945Z,30.27
2017-11-18T09:08:44.181Z,30.57
2017-11-18T09:11:11.667Z,28.97
2017-11-18T09:13:39.166Z,30.83
2017-11-18T09:16:06.634Z,30.17
2017-11-18T09:18:34.898Z,28.50
2017-11-18T09:21:02.380Z,30.83
2017-11-18T09:23:29.877Z,30.00
2017-11-18T09:25:57.346Z,30.40
2017-11-18T09:28:24.823Z,29.63
2017-11-18T09:30:52.310Z,29.30
2017-11-18T09:33:19.774Z,26.27
2017-11-18T09:35:47.237Z,28.57
2017-11-18T09:38:14.722Z,27.83
2017-11-18T09:40:42.970Z,28.23
2017-11-18T09:43:11.229Z,27.77
2017-11-18T09:45:38.688Z,28.47
2017-11-18T09:48:06.156Z,27.27
2017-11-18T09:50:33.645Z,28.20
2017-11-18T09:53:01.882Z,27.47
2017-11-18T09:55:29.371Z,26.37
2017-11-18T09:57:57.611Z,27.80
2017-11-18T10:00:25.101Z,29.00
2017-11-18T10:02:52.569Z,26.70
2017-11-18T10:05:20.069Z,26.90
2017-11-18T10:07:47.547Z,23.23
2017-11-18T10:10:15.037Z,22.67
2017-11-18T10:12:42.515Z,23.50
2017-11-18T10:15:09.978Z,23.53
2017-11-18T10:17:37.461Z,20.93
2017-11-18T10:20:05.699Z,31.33
2017-11-18T10:22:33.173Z,60.53
2017-11-18T10:25:00.688Z,120.23
2017-11-18T10:27:28.163Z,20.90
2017-11-18T10:29:56.226Z,21.90
2017-11-18T10:32:23.719Z,20.27
2017-11-18T10:34:51.237Z,20.37
2017-11-18T10:37:18.691Z,20.33
2017-11-18T10:39:46.937Z,18.50
2017-11-18T10:42:14.410Z,20.37
2017-11-18T10:44:41.892Z,18.40
2017-11-18T10:47:10.134Z,16.10
2017-11-18T10:49:37.610Z,17.30
2017-11-18T10:52:05.111Z,17.30
2017-11-18T10:54:34.356Z,18.13
2017-11-18T10:57:01.833Z,15.93
2017-11-18T10:59:29.316Z,17.00
2017-11-18T11:01:56.810Z,22.13
2017-11-18T11:04:24.275Z,19.57
2017-11-18T11:06:52.518Z,16.27
2017-11-18T11:09:20.001Z,15.13
2017-11-18T11:11:48.242Z,15.17
2017-11-18T11:14:15.710Z,14.83
2017-11-18T11:16:43.190Z,14.87
2017-11-18T11:19:10.659Z,14.80
2017-11-18T11:21:38.119Z,13.47
2017-11-18T11:24:05.588Z,13.93
2017-11-18T11:26:33.051Z,11.97
2017-11-18T11:29:01.313Z,12.43
2017-11-18T11:31:28.792Z,12.07
2017-11-18T11:33:56.272Z,11.80
2017-11-18T11:36:24.506Z,11.57
2017-11-18T11:38:51.986Z,11.50
2017-11-18T11:41:19.451Z,10.40
2017-11-18T11:43:46.915Z,11.40
2017-11-18T11:46:14.382Z,12.20
2017-11-18T11:48:41.892Z,11.30
2017-11-18T11:51:09.377Z,11.87
2017-11-18T11:53:36.886Z,10.67
2017-11-18T11:56:05.119Z,10.70
2017-11-18T11:58:32.588Z,11.70
2017-11-18T12:01:00.049Z,11.37
2017-11-18T12:03:27.518Z,11.27
2017-11-18T12:05:54.978Z,10.23
2017-11-18T12:08:22.461Z,11.67
2017-11-18T12:10:49.915Z,11.53
2017-11-18T12:13:17.418Z,11.30
2017-11-18T12:15:44.907Z,11.20
2017-11-18T12:18:12.391Z,11.57
2017-11-18T12:20:39.862Z,11.10
2017-11-18T12:23:07.343Z,11.57
2017-11-18T12:25:34.815Z,10.53
2017-11-18T12:28:03.054Z,10.87
2017-11-18T12:30:30.531Z,10.70
2017-11-18T12:32:57.992Z,9.13
2017-11-18T12:35:25.492Z,8.30
2017-11-18T12:37:53.749Z,8.33
2017-11-18T12:40:21.279Z,7.67
2017-11-18T12:42:48.736Z,7.33
2017-11-18T12:45:16.215Z,9.20
2017-11-18T12:47:43.674Z,9.43
2017-11-18T12:50:11.216Z,8.73
2017-11-18T12:52:38.788Z,9.27
2017-11-18T12:55:06.272Z,8.67
2017-11-18T12:57:33.745Z,8.70
2017-11-18T13:00:01.233Z,12.07
2017-11-18T13:02:29.466Z,27.97
2017-11-18T13:04:56.935Z,14.20
2017-11-18T13:07:24.436Z,10.53
2017-11-18T13:09:52.673Z,10.57
2017-11-18T13:12:20.153Z,9.53
2017-11-18T13:14:47.659Z,8.47
2017-11-18T13:17:15.901Z,11.70
2017-11-18T13:19:43.362Z,10.10
2017-11-18T13:22:10.827Z,7.90
2017-11-18T13:24:38.305Z,9.27
2017-11-18T13:27:05.775Z,8.80
2017-11-18T13:29:34.014Z,8.20
2017-11-18T13:32:01.571Z,8.23
2017-11-18T13:34:29.035Z,8.53
2017-11-18T13:36:56.521Z,9.60
2017-11-18T13:39:23.974Z,9.00
2017-11-18T13:41:51.443Z,8.33
2017-11-18T13:44:18.906Z,8.83
2017-11-18T13:46:46.388Z,7.83
2017-11-18T13:49:13.865Z,7.93
2017-11-18T13:51:41.361Z,9.60
2017-11-18T13:54:08.841Z,7.03
2017-11-18T13:56:36.305Z,8.07
2017-11-18T13:59:03.762Z,7.80
2017-11-18T14:01:31.255Z,9.30
2017-11-18T14:03:58.723Z,9.70
2017-11-18T14:06:26.744Z,9.93
2017-11-18T14:08:54.218Z,9.23
2017-11-18T14:11:21.702Z,9.83
2017-11-18T14:13:49.969Z,10.50
2017-11-18T14:16:17.468Z,18.27
2017-11-18T14:18:44.936Z,13.10
2017-11-18T14:21:13.203Z,15.87
2017-11-18T14:23:40.676Z,14.93
2017-11-18T14:26:08.186Z,12.50
2017-11-18T14:28:35.643Z,10.83
2017-11-18T14:31:03.128Z,10.37
2017-11-18T14:33:30.606Z,8.20
2017-11-18T14:35:58.085Z,13.43
2017-11-18T14:38:26.476Z,37.77
2017-11-18T14:40:54.703Z,47.00
2017-11-18T14:43:22.172Z,14.07
2017-11-18T14:45:49.646Z,14.73
2017-11-18T14:48:17.111Z,10.83
2017-11-18T14:50:44.606Z,12.20
2017-11-18T14:53:12.088Z,10.30
2017-11-18T14:55:40.353Z,10.03
2017-11-18T14:58:08.593Z,12.07
2017-11-18T15:00:36.076Z,10.00
2017-11-18T15:03:03.544Z,10.43
2017-11-18T15:05:31.014Z,12.00
2017-11-18T15:07:59.274Z,9.90
2017-11-18T15:10:26.746Z,27.57
2017-11-18T15:12:54.277Z,10.80
2017-11-18T15:15:24.194Z,10.67
2017-11-18T15:17:52.258Z,11.50
2017-11-18T15:20:25.447Z,9.80
2017-11-18T15:26:05.965Z,8.30
2017-11-18T15:28:39.236Z,11.23
2017-11-18T15:31:13.244Z,9.27
2017-11-18T15:33:56.516Z,9.63
2017-11-18T15:36:30.449Z,8.90
2017-11-18T15:38:57.932Z,8.37
2017-11-18T15:41:25.378Z,10.83
2017-11-18T15:43:56.286Z,7.33
2017-11-18T15:46:42.303Z,7.03
2017-11-18T15:49:28.476Z,6.93
2017-11-18T15:52:12.369Z,6.33
2017-11-18T15:54:43.360Z,7.97
2017-11-18T15:57:13.632Z,8.07
2017-11-18T15:59:41.112Z,9.03
2017-11-18T16:02:14.414Z,6.50
2017-11-18T16:04:41.933Z,13.33
2017-11-18T16:07:12.009Z,9.00
2017-11-18T16:09:40.247Z,8.00
2017-11-18T16:12:07.714Z,9.60
2017-11-18T16:14:35.192Z,8.57
2017-11-18T16:17:02.667Z,8.27
2017-11-18T16:19:30.148Z,7.10
2017-11-18T16:21:58.378Z,9.30
2017-11-18T16:24:25.858Z,6.57
2017-11-18T16:26:53.316Z,8.57
2017-11-18T16:29:21.558Z,7.77
2017-11-18T16:31:49.034Z,6.30
2017-11-18T16:34:16.591Z,6.43
2017-11-18T16:36:44.071Z,6.40
2017-11-18T16:39:11.693Z,6.07
2017-11-18T16:41:39.902Z,6.17
2017-11-18T16:44:07.379Z,5.70
2017-11-18T16:46:34.895Z,5.90
2017-11-18T16:49:02.383Z,6.40
2017-11-18T16:51:29.854Z,7.30
2017-11-18T16:53:57.333Z,6.90
2017-11-18T16:56:24.773Z,6.60
2017-11-18T16:58:52.274Z,6.50
2017-11-18T17:01:19.757Z,6.20
2017-11-18T17:03:47.229Z,6.37
2017-11-18T17:06:15.481Z,6.87
2017-11-18T17:08:42.966Z,7.03
2017-11-18T17:11:11.215Z,7.77
2017-11-18T17:13:38.685Z,6.67
2017-11-18T17:16:06.161Z,6.17
2017-11-18T17:18:33.643Z,6.60
2017-11-18T17:21:01.891Z,7.77
2017-11-18T17:23:29.348Z,6.37
2017-11-18T17:25:57.620Z,6.60
2017-11-18T17:28:25.073Z,6.00
2017-11-18T17:30:52.553Z,6.80
2017-11-18T17:33:22.385Z,7.40
2017-11-18T17:35:49.862Z,7.30
2017-11-18T17:38:17.357Z,7.13
2017-11-18T17:40:45.601Z,6.73
2017-11-18T17:43:13.065Z,6.30
2017-11-18T17:45:41.317Z,6.53
2017-11-18T17:48:08.814Z,6.87
2017-11-18T17:50:37.058Z,6.27
2017-11-18T17:53:04.884Z,6.70
2017-11-18T17:55:33.115Z,6.33
2017-11-18T17:58:00.596Z,6.67
2017-11-18T18:00:28.075Z,6.53
2017-11-18T18:02:56.320Z,6.67
2017-11-18T18:05:23.787Z,6.97
2017-11-18T18:07:51.241Z,6.80
2017-11-18T18:10:18.757Z,6.77
2017-11-18T18:12:46.228Z,7.00
2017-11-18T18:15:13.699Z,6.80
2017-11-18T18:17:41.171Z,7.43
2017-11-18T18:20:08.643Z,6.60
2017-11-18T18:22:36.096Z,6.27
2017-11-18T18:25:03.595Z,6.67
2017-11-18T18:27:31.114Z,7.10
2017-11-18T18:29:58.574Z,6.77
2017-11-18T18:32:26.052Z,6.80
2017-11-18T18:34:53.519Z,7.80
2017-11-18T18:37:21.007Z,7.97
2017-11-18T18:39:48.487Z,9.47
2017-11-18T18:42:15.964Z,9.10
2017-11-18T18:44:44.225Z,10.67
2017-11-18T18:47:11.697Z,9.13
2017-11-18T18:49:39.934Z,9.03
2017-11-18T18:52:07.425Z,8.30
2017-11-18T18:54:34.902Z,8.40
2017-11-18T18:57:03.140Z,8.37
2017-11-18T18:59:30.605Z,18.40
2017-11-18T19:01:58.067Z,9.93
2017-11-18T19:04:26.346Z,8.27
2017-11-18T19:06:53.808Z,8.50
2017-11-18T19:09:21.271Z,12.73
2017-11-18T19:11:48.758Z,14.07
2017-11-18T19:14:16.231Z,15.77
2017-11-18T19:16:43.714Z,10.60
2017-11-18T19:19:11.199Z,9.07
2017-11-18T19:21:38.678Z,10.13
2017-11-18T19:24:06.153Z,10.10
2017-11-18T19:26:33.618Z,8.50
2017-11-18T19:29:01.097Z,9.40
2017-11-18T19:31:28.561Z,8.37
2017-11-18T19:33:56.035Z,9.37
2017-11-18T19:36:23.518Z,9.70
2017-11-18T19:38:51.881Z,9.03
2017-11-18T19:41:20.133Z,10.90
2017-11-18T19:43:47.647Z,9.30
2017-11-18T19:46:15.116Z,9.70
2017-11-18T19:48:42.597Z,10.53
2017-11-18T19:51:10.086Z,11.57
2017-11-18T19:53:37.596Z,11.83
2017-11-18T19:56:05.068Z,12.50
2017-11-18T19:58:32.539Z,13.27
2017-11-18T20:01:00.002Z,12.30
2017-11-18T20:03:27.487Z,12.60
2017-11-18T20:05:54.962Z,13.40
2017-11-18T20:08:22.470Z,14.40
2017-11-18T20:10:50.697Z,13.10
2017-11-18T20:13:18.196Z,12.07
2017-11-18T20:15:45.654Z,12.47
2017-11-18T20:18:13.137Z,12.70
2017-11-18T20:20:41.382Z,13.57
2017-11-18T20:23:08.869Z,13.27
2017-11-18T20:25:36.342Z,12.53
2017-11-18T20:28:04.588Z,11.57
2017-11-18T20:30:32.053Z,12.73
2017-11-18T20:32:59.518Z,12.90
2017-11-18T20:35:26.969Z,12.30
2017-11-18T20:37:54.509Z,12.03
2017-11-18T20:40:21.964Z,12.43
2017-11-18T20:42:49.442Z,12.80
2017-11-18T20:45:16.920Z,12.50
2017-11-18T20:47:44.402Z,12.33
2017-11-18T20:50:11.881Z,12.97
2017-11-18T20:52:40.130Z,13.07
2017-11-18T20:55:07.604Z,14.00
2017-11-18T20:57:35.076Z,14.13
2017-11-18T21:00:03.319Z,13.63
2017-11-18T21:02:30.798Z,12.30
2017-11-18T21:04:58.276Z,13.40
2017-11-18T21:07:25.762Z,13.90
2017-11-18T21:09:54.488Z,15.70
2017-11-18T21:12:21.968Z,12.93
2017-11-18T21:14:49.449Z,12.93
2017-11-18T21:17:16.910Z,12.23
2017-11-18T21:19:44.374Z,12.93
2017-11-18T21:22:11.834Z,13.53
2017-11-18T21:24:39.327Z,12.37
2017-11-18T21:27:07.554Z,13.93
2017-11-18T21:29:35.038Z,13.63
2017-11-18T21:32:02.508Z,12.97
2017-11-18T21:34:29.985Z,13.87
2017-11-18T21:36:58.232Z,14.43
2017-11-18T21:39:25.715Z,14.63
2017-11-18T21:41:53.180Z,14.77
2017-11-18T21:44:20.678Z,14.13
2017-11-18T21:46:48.139Z,15.53
2017-11-18T21:49:15.609Z,15.27
2017-11-18T21:51:43.087Z,15.43
2017-11-18T21:54:10.563Z,15.80
2017-11-18T21:56:38.037Z,15.60
2017-11-18T21:59:05.519Z,15.73
2017-11-18T22:01:33.773Z,16.07
2017-11-18T22:04:01.244Z,16.33
2017-11-18T22:06:28.735Z,15.40
2017-11-18T22:08:56.213Z,15.43
2017-11-18T22:11:24.463Z,16.30
2017-11-18T22:13:51.925Z,15.77
2017-11-18T22:16:19.416Z,16.73
2017-11-18T22:18:46.886Z,15.70
2017-11-18T22:21:14.368Z,15.93
2017-11-18T22:23:41.865Z,15.20
2017-11-18T22:26:09.347Z,15.27
2017-11-18T22:28:36.812Z,15.10
2017-11-18T22:31:05.069Z,15.17
2017-11-18T22:33:32.546Z,16.20
2017-11-18T22:36:00.031Z,14.90
2017-11-18T22:38:28.288Z,13.73
2017-11-18T22:40:55.782Z,14.83
2017-11-18T22:43:23.270Z,14.40
2017-11-18T22:45:50.762Z,14.63
2017-11-18T22:48:18.243Z,14.20
2017-11-18T22:50:45.729Z,14.37
2017-11-18T22:53:13.972Z,14.83
2017-11-18T22:55:41.444Z,16.43
2017-11-18T22:58:08.973Z,16.50
2017-11-18T23:00:41.311Z,15.97
2017-11-18T23:03:09.571Z,16.07
2017-11-18T23:05:37.063Z,16.73
2017-11-18T23:08:05.282Z,17.27
2017-11-18T23:10:32.741Z,16.63
2017-11-18T23:13:00.246Z,16.70
2017-11-18T23:15:27.708Z,16.87
2017-11-18T23:17:55.186Z,16.83
2017-11-18T23:20:22.703Z,17.03
2017-11-18T23:22:50.173Z,16.37
2017-11-18T23:25:17.637Z,18.13
2017-11-18T23:27:45.111Z,17.43
2017-11-18T23:30:12.578Z,16.40
2017-11-18T23:32:40.075Z,16.47
2017-11-18T23:35:08.315Z,16.27
2017-11-18T23:37:35.790Z,15.93
2017-11-18T23:40:03.271Z,17.10
2017-11-18T23:42:30.773Z,16.53
2017-11-18T23:44:58.250Z,16.80
2017-11-18T23:47:25.730Z,16.03
2017-11-18T23:49:53.205Z,16.30
2017-11-18T23:52:20.693Z,15.80
2017-11-18T23:54:48.927Z,14.67
2017-11-18T23:57:16.410Z,13.87
2017-11-18T23:59:43.885Z,13.87
